sensor_id;sensor_type;location;lat;lon;timestamp;temperature;humidity
70826;SHT31;58446;41.490;22.098;2022-07-29T00:01:22;27.29;57.04
70826;SHT31;58446;41.490;22.098;2022-07-29T00:03:48;27.25;57.21
70826;SHT31;58446;41.490;22.098;2022-07-29T00:06:14;27.19;57.42
70826;SHT31;58446;41.490;22.098;2022-07-29T00:08:40;27.36;56.90
70826;SHT31;58446;41.490;22.098;2022-07-29T00:11:06;27.28;57.04
70826;SHT31;58446;41.490;22.098;2022-07-29T00:13:32;27.09;57.55
70826;SHT31;58446;41.490;22.098;2022-07-29T00:15:57;26.89;57.91
70826;SHT31;58446;41.490;22.098;2022-07-29T00:18:23;26.99;57.68
70826;SHT31;58446;41.490;22.098;2022-07-29T00:20:49;26.99;57.65
70826;SHT31;58446;41.490;22.098;2022-07-29T00:23:14;26.99;57.58
70826;SHT31;58446;41.490;22.098;2022-07-29T00:25:40;27.00;57.49
70826;SHT31;58446;41.490;22.098;2022-07-29T00:28:06;26.91;57.71
70826;SHT31;58446;41.490;22.098;2022-07-29T00:30:31;26.94;57.68
70826;SHT31;58446;41.490;22.098;2022-07-29T00:32:57;26.95;57.70
70826;SHT31;58446;41.490;22.098;2022-07-29T00:35:23;26.89;57.77
70826;SHT31;58446;41.490;22.098;2022-07-29T00:38:07;26.74;58.21
70826;SHT31;58446;41.490;22.098;2022-07-29T00:40:33;26.71;58.35
70826;SHT31;58446;41.490;22.098;2022-07-29T00:42:58;26.72;58.24
70826;SHT31;58446;41.490;22.098;2022-07-29T00:45:24;26.69;58.42
70826;SHT31;58446;41.490;22.098;2022-07-29T00:47:51;26.52;58.88
70826;SHT31;58446;41.490;22.098;2022-07-29T00:50:17;26.68;58.40
70826;SHT31;58446;41.490;22.098;2022-07-29T00:52:43;26.54;58.96
70826;SHT31;58446;41.490;22.098;2022-07-29T00:55:13;26.33;59.53
70826;SHT31;58446;41.490;22.098;2022-07-29T00:57:41;26.40;59.26
70826;SHT31;58446;41.490;22.098;2022-07-29T01:00:11;25.87;60.52
70826;SHT31;58446;41.490;22.098;2022-07-29T01:02:37;25.45;61.63
70826;SHT31;58446;41.490;22.098;2022-07-29T01:05:04;25.19;62.80
70826;SHT31;58446;41.490;22.098;2022-07-29T01:07:36;25.21;62.76
70826;SHT31;58446;41.490;22.098;2022-07-29T01:10:04;25.73;61.11
70826;SHT31;58446;41.490;22.098;2022-07-29T01:12:33;25.73;60.97
70826;SHT31;58446;41.490;22.098;2022-07-29T01:15:01;25.50;61.59
70826;SHT31;58446;41.490;22.098;2022-07-29T01:20:57;25.86;60.73
70826;SHT31;58446;41.490;22.098;2022-07-29T01:23:52;26.18;59.70
70826;SHT31;58446;41.490;22.098;2022-07-29T01:29:16;26.20;59.38
70826;SHT31;58446;41.490;22.098;2022-07-29T01:31:47;26.18;59.49
70826;SHT31;58446;41.490;22.098;2022-07-29T01:34:23;25.73;60.93
70826;SHT31;58446;41.490;22.098;2022-07-29T01:37:26;25.92;60.25
70826;SHT31;58446;41.490;22.098;2022-07-29T01:39:56;26.27;59.20
70826;SHT31;58446;41.490;22.098;2022-07-29T01:42:36;26.37;58.87
70826;SHT31;58446;41.490;22.098;2022-07-29T01:45:14;26.52;58.45
70826;SHT31;58446;41.490;22.098;2022-07-29T01:47:56;26.43;58.88
70826;SHT31;58446;41.490;22.098;2022-07-29T01:50:31;26.43;59.15
70826;SHT31;58446;41.490;22.098;2022-07-29T01:53:01;26.33;59.73
70826;SHT31;58446;41.490;22.098;2022-07-29T01:55:31;26.34;59.61
70826;SHT31;58446;41.490;22.098;2022-07-29T01:57:58;26.27;59.77
70826;SHT31;58446;41.490;22.098;2022-07-29T02:00:25;26.14;60.24
70826;SHT31;58446;41.490;22.098;2022-07-29T02:02:53;26.03;60.71
70826;SHT31;58446;41.490;22.098;2022-07-29T02:05:21;25.92;60.75
70826;SHT31;58446;41.490;22.098;2022-07-29T02:07:49;25.86;60.81
70826;SHT31;58446;41.490;22.098;2022-07-29T02:10:18;26.12;60.13
70826;SHT31;58446;41.490;22.098;2022-07-29T02:12:45;26.28;59.61
70826;SHT31;58446;41.490;22.098;2022-07-29T02:15:12;26.18;59.76
70826;SHT31;58446;41.490;22.098;2022-07-29T02:17:45;26.04;60.39
70826;SHT31;58446;41.490;22.098;2022-07-29T02:20:11;25.97;60.46
70826;SHT31;58446;41.490;22.098;2022-07-29T02:22:39;25.96;60.84
70826;SHT31;58446;41.490;22.098;2022-07-29T02:25:06;25.79;61.49
70826;SHT31;58446;41.490;22.098;2022-07-29T02:27:34;25.63;61.92
70826;SHT31;58446;41.490;22.098;2022-07-29T02:30:01;25.59;61.55
70826;SHT31;58446;41.490;22.098;2022-07-29T02:32:30;25.49;61.78
70826;SHT31;58446;41.490;22.098;2022-07-29T02:34:58;25.34;62.03
70826;SHT31;58446;41.490;22.098;2022-07-29T02:37:24;24.95;62.98
70826;SHT31;58446;41.490;22.098;2022-07-29T02:39:53;25.25;62.34
70826;SHT31;58446;41.490;22.098;2022-07-29T02:42:22;25.32;61.93
70826;SHT31;58446;41.490;22.098;2022-07-29T02:44:49;25.39;61.66
70826;SHT31;58446;41.490;22.098;2022-07-29T02:47:21;25.45;61.51
70826;SHT31;58446;41.490;22.098;2022-07-29T02:49:53;25.43;61.59
70826;SHT31;58446;41.490;22.098;2022-07-29T02:52:54;25.42;61.48
70826;SHT31;58446;41.490;22.098;2022-07-29T02:55:32;25.48;61.65
70826;SHT31;58446;41.490;22.098;2022-07-29T02:58:12;25.50;61.29
70826;SHT31;58446;41.490;22.098;2022-07-29T03:00:40;25.31;61.88
70826;SHT31;58446;41.490;22.098;2022-07-29T03:03:12;25.50;61.17
70826;SHT31;58446;41.490;22.098;2022-07-29T03:05:41;25.43;61.56
70826;SHT31;58446;41.490;22.098;2022-07-29T03:08:11;25.53;61.34
70826;SHT31;58446;41.490;22.098;2022-07-29T03:10:42;25.45;61.63
70826;SHT31;58446;41.490;22.098;2022-07-29T03:13:09;25.03;62.61
70826;SHT31;58446;41.490;22.098;2022-07-29T03:15:35;25.14;62.22
70826;SHT31;58446;41.490;22.098;2022-07-29T03:18:02;25.11;62.36
70826;SHT31;58446;41.490;22.098;2022-07-29T03:20:28;25.28;61.81
70826;SHT31;58446;41.490;22.098;2022-07-29T03:22:53;25.46;61.27
70826;SHT31;58446;41.490;22.098;2022-07-29T03:25:20;25.38;61.43
70826;SHT31;58446;41.490;22.098;2022-07-29T03:27:47;25.55;60.95
70826;SHT31;58446;41.490;22.098;2022-07-29T03:41:16;25.52;61.04
70826;SHT31;58446;41.490;22.098;2022-07-29T03:43:44;25.59;60.78
70826;SHT31;58446;41.490;22.098;2022-07-29T03:46:11;25.58;60.72
70826;SHT31;58446;41.490;22.098;2022-07-29T03:48:42;25.97;59.57
70826;SHT31;58446;41.490;22.098;2022-07-29T03:51:08;25.96;59.68
70826;SHT31;58446;41.490;22.098;2022-07-29T03:53:33;25.94;59.75
70826;SHT31;58446;41.490;22.098;2022-07-29T03:56:02;25.99;59.81
70826;SHT31;58446;41.490;22.098;2022-07-29T03:58:29;25.99;59.61
70826;SHT31;58446;41.490;22.098;2022-07-29T04:00:56;26.14;59.09
70826;SHT31;58446;41.490;22.098;2022-07-29T04:03:22;26.09;59.14
70826;SHT31;58446;41.490;22.098;2022-07-29T04:06:05;26.34;58.54
70826;SHT31;58446;41.490;22.098;2022-07-29T04:08:32;26.49;57.90
70826;SHT31;58446;41.490;22.098;2022-07-29T04:10:59;26.48;57.90
70826;SHT31;58446;41.490;22.098;2022-07-29T04:13:24;26.62;57.58
70826;SHT31;58446;41.490;22.098;2022-07-29T04:15:50;26.69;57.32
70826;SHT31;58446;41.490;22.098;2022-07-29T04:18:16;26.61;57.88
70826;SHT31;58446;41.490;22.098;2022-07-29T04:20:41;26.52;58.08
70826;SHT31;58446;41.490;22.098;2022-07-29T04:23:07;26.55;58.21
70826;SHT31;58446;41.490;22.098;2022-07-29T04:25:36;26.44;58.72
70826;SHT31;58446;41.490;22.098;2022-07-29T04:28:02;26.26;59.22
70826;SHT31;58446;41.490;22.098;2022-07-29T04:30:31;26.06;59.56
70826;SHT31;58446;41.490;22.098;2022-07-29T04:32:58;26.13;59.96
70826;SHT31;58446;41.490;22.098;2022-07-29T04:35:24;25.97;60.24
70826;SHT31;58446;41.490;22.098;2022-07-29T04:37:49;26.06;60.71
70826;SHT31;58446;41.490;22.098;2022-07-29T04:40:15;26.14;59.64
70826;SHT31;58446;41.490;22.098;2022-07-29T04:42:41;26.18;60.01
70826;SHT31;58446;41.490;22.098;2022-07-29T04:45:07;26.31;60.11
70826;SHT31;58446;41.490;22.098;2022-07-29T04:47:32;26.36;60.16
70826;SHT31;58446;41.490;22.098;2022-07-29T04:49:58;26.21;60.20
70826;SHT31;58446;41.490;22.098;2022-07-29T04:52:24;26.12;60.41
70826;SHT31;58446;41.490;22.098;2022-07-29T04:54:49;26.20;61.04
70826;SHT31;58446;41.490;22.098;2022-07-29T04:57:15;26.34;60.20
70826;SHT31;58446;41.490;22.098;2022-07-29T04:59:41;26.20;60.06
70826;SHT31;58446;41.490;22.098;2022-07-29T05:02:07;26.47;59.80
70826;SHT31;58446;41.490;22.098;2022-07-29T05:04:32;26.62;59.87
70826;SHT31;58446;41.490;22.098;2022-07-29T05:06:58;26.65;59.15
70826;SHT31;58446;41.490;22.098;2022-07-29T05:09:24;26.81;58.98
70826;SHT31;58446;41.490;22.098;2022-07-29T05:11:49;26.99;58.76
70826;SHT31;58446;41.490;22.098;2022-07-29T05:14:15;27.09;58.66
70826;SHT31;58446;41.490;22.098;2022-07-29T05:16:40;27.13;58.40
70826;SHT31;58446;41.490;22.098;2022-07-29T05:19:07;27.23;58.08
70826;SHT31;58446;41.490;22.098;2022-07-29T05:21:33;26.99;58.19
70826;SHT31;58446;41.490;22.098;2022-07-29T05:23:58;27.39;57.37
70826;SHT31;58446;41.490;22.098;2022-07-29T05:26:24;27.37;57.75
70826;SHT31;58446;41.490;22.098;2022-07-29T05:28:50;27.51;56.93
70826;SHT31;58446;41.490;22.098;2022-07-29T05:31:15;27.33;57.68
70826;SHT31;58446;41.490;22.098;2022-07-29T05:33:42;27.56;57.09
70826;SHT31;58446;41.490;22.098;2022-07-29T05:36:07;27.74;56.71
70826;SHT31;58446;41.490;22.098;2022-07-29T05:38:34;27.81;56.13
70826;SHT31;58446;41.490;22.098;2022-07-29T05:41:00;27.81;56.01
70826;SHT31;58446;41.490;22.098;2022-07-29T05:43:27;27.98;54.82
70826;SHT31;58446;41.490;22.098;2022-07-29T05:45:53;27.97;55.76
70826;SHT31;58446;41.490;22.098;2022-07-29T05:48:18;28.09;55.08
70826;SHT31;58446;41.490;22.098;2022-07-29T05:50:44;27.88;55.96
70826;SHT31;58446;41.490;22.098;2022-07-29T05:53:10;28.22;55.95
70826;SHT31;58446;41.490;22.098;2022-07-29T05:55:36;28.49;54.75
70826;SHT31;58446;41.490;22.098;2022-07-29T05:58:02;28.63;55.02
70826;SHT31;58446;41.490;22.098;2022-07-29T06:00:27;28.89;54.04
70826;SHT31;58446;41.490;22.098;2022-07-29T06:02:53;29.14;53.21
70826;SHT31;58446;41.490;22.098;2022-07-29T06:05:19;29.20;52.18
70826;SHT31;58446;41.490;22.098;2022-07-29T06:07:44;28.82;52.99
70826;SHT31;58446;41.490;22.098;2022-07-29T06:10:10;29.03;53.51
70826;SHT31;58446;41.490;22.098;2022-07-29T06:12:36;29.17;52.67
70826;SHT31;58446;41.490;22.098;2022-07-29T06:15:02;29.08;52.32
70826;SHT31;58446;41.490;22.098;2022-07-29T06:17:27;29.02;52.55
70826;SHT31;58446;41.490;22.098;2022-07-29T06:19:53;28.87;53.81
70826;SHT31;58446;41.490;22.098;2022-07-29T06:22:19;28.97;52.70
70826;SHT31;58446;41.490;22.098;2022-07-29T06:24:44;29.18;53.56
70826;SHT31;58446;41.490;22.098;2022-07-29T06:27:11;29.47;52.97
70826;SHT31;58446;41.490;22.098;2022-07-29T06:29:37;29.37;51.92
70826;SHT31;58446;41.490;22.098;2022-07-29T06:32:04;29.50;52.30
70826;SHT31;58446;41.490;22.098;2022-07-29T06:34:29;29.21;51.84
70826;SHT31;58446;41.490;22.098;2022-07-29T06:36:55;29.27;52.21
70826;SHT31;58446;41.490;22.098;2022-07-29T06:39:21;29.38;52.47
70826;SHT31;58446;41.490;22.098;2022-07-29T06:41:47;29.38;51.81
70826;SHT31;58446;41.490;22.098;2022-07-29T06:44:17;29.20;52.00
70826;SHT31;58446;41.490;22.098;2022-07-29T06:46:43;29.46;52.46
70826;SHT31;58446;41.490;22.098;2022-07-29T06:49:09;29.78;52.13
70826;SHT31;58446;41.490;22.098;2022-07-29T06:51:35;29.84;50.70
70826;SHT31;58446;41.490;22.098;2022-07-29T06:54:02;29.96;50.76
70826;SHT31;58446;41.490;22.098;2022-07-29T06:56:32;30.19;51.32
70826;SHT31;58446;41.490;22.098;2022-07-29T06:58:58;30.32;50.44
70826;SHT31;58446;41.490;22.098;2022-07-29T07:01:24;30.52;50.81
70826;SHT31;58446;41.490;22.098;2022-07-29T07:03:50;30.61;49.83
70826;SHT31;58446;41.490;22.098;2022-07-29T07:06:15;30.78;49.07
70826;SHT31;58446;41.490;22.098;2022-07-29T07:08:41;30.73;48.15
70826;SHT31;58446;41.490;22.098;2022-07-29T07:11:08;30.81;49.05
70826;SHT31;58446;41.490;22.098;2022-07-29T07:13:34;30.88;49.26
70826;SHT31;58446;41.490;22.098;2022-07-29T07:16:01;30.81;48.55
70826;SHT31;58446;41.490;22.098;2022-07-29T07:18:26;30.64;47.99
70826;SHT31;58446;41.490;22.098;2022-07-29T07:20:53;30.67;48.80
70826;SHT31;58446;41.490;22.098;2022-07-29T07:23:19;30.97;49.22
70826;SHT31;58446;41.490;22.098;2022-07-29T07:25:44;31.24;46.79
70826;SHT31;58446;41.490;22.098;2022-07-29T07:28:10;31.31;47.00
70826;SHT31;58446;41.490;22.098;2022-07-29T07:30:36;31.46;47.26
70826;SHT31;58446;41.490;22.098;2022-07-29T07:33:03;31.41;47.92
70826;SHT31;58446;41.490;22.098;2022-07-29T07:35:29;31.42;47.60
70826;SHT31;58446;41.490;22.098;2022-07-29T07:37:56;31.14;46.98
70826;SHT31;58446;41.490;22.098;2022-07-29T07:40:22;31.29;47.60
70826;SHT31;58446;41.490;22.098;2022-07-29T07:42:48;31.36;46.67
70826;SHT31;58446;41.490;22.098;2022-07-29T07:45:14;31.43;46.31
70826;SHT31;58446;41.490;22.098;2022-07-29T07:47:39;31.50;45.17
70826;SHT31;58446;41.490;22.098;2022-07-29T07:50:08;31.45;46.23
70826;SHT31;58446;41.490;22.098;2022-07-29T07:52:34;31.45;47.16
70826;SHT31;58446;41.490;22.098;2022-07-29T07:55:00;31.70;47.24
70826;SHT31;58446;41.490;22.098;2022-07-29T07:57:26;31.85;45.69
70826;SHT31;58446;41.490;22.098;2022-07-29T07:59:52;31.97;45.96
70826;SHT31;58446;41.490;22.098;2022-07-29T08:02:17;32.02;45.93
70826;SHT31;58446;41.490;22.098;2022-07-29T08:04:43;32.13;45.08
70826;SHT31;58446;41.490;22.098;2022-07-29T08:07:08;32.19;45.61
70826;SHT31;58446;41.490;22.098;2022-07-29T08:09:35;32.12;45.45
70826;SHT31;58446;41.490;22.098;2022-07-29T08:12:01;32.20;45.04
70826;SHT31;58446;41.490;22.098;2022-07-29T08:14:29;32.24;45.67
70826;SHT31;58446;41.490;22.098;2022-07-29T08:16:55;32.17;44.61
70826;SHT31;58446;41.490;22.098;2022-07-29T08:19:21;32.27;44.40
70826;SHT31;58446;41.490;22.098;2022-07-29T08:21:46;32.33;45.06
70826;SHT31;58446;41.490;22.098;2022-07-29T08:24:12;31.76;44.89
70826;SHT31;58446;41.490;22.098;2022-07-29T08:26:57;31.70;45.22
70826;SHT31;58446;41.490;22.098;2022-07-29T08:29:23;31.48;45.65
70826;SHT31;58446;41.490;22.098;2022-07-29T08:31:48;31.58;46.15
70826;SHT31;58446;41.490;22.098;2022-07-29T08:34:14;31.73;45.71
70826;SHT31;58446;41.490;22.098;2022-07-29T08:36:39;31.61;44.89
70826;SHT31;58446;41.490;22.098;2022-07-29T08:39:05;31.70;45.94
70826;SHT31;58446;41.490;22.098;2022-07-29T08:41:31;31.94;44.91
70826;SHT31;58446;41.490;22.098;2022-07-29T08:43:57;32.03;43.95
70826;SHT31;58446;41.490;22.098;2022-07-29T08:46:23;32.07;44.01
70826;SHT31;58446;41.490;22.098;2022-07-29T08:48:49;32.00;45.51
70826;SHT31;58446;41.490;22.098;2022-07-29T08:51:18;32.26;46.44
70826;SHT31;58446;41.490;22.098;2022-07-29T08:53:46;32.51;43.29
70826;SHT31;58446;41.490;22.098;2022-07-29T08:56:16;32.61;44.11
70826;SHT31;58446;41.490;22.098;2022-07-29T08:58:44;32.75;43.29
70826;SHT31;58446;41.490;22.098;2022-07-29T09:01:12;32.79;41.18
70826;SHT31;58446;41.490;22.098;2022-07-29T09:03:40;32.74;42.04
70826;SHT31;58446;41.490;22.098;2022-07-29T09:06:07;32.82;42.18
70826;SHT31;58446;41.490;22.098;2022-07-29T09:08:33;33.02;42.96
70826;SHT31;58446;41.490;22.098;2022-07-29T09:11:01;32.91;41.89
70826;SHT31;58446;41.490;22.098;2022-07-29T09:13:28;32.98;44.10
70826;SHT31;58446;41.490;22.098;2022-07-29T09:15:54;33.15;41.93
70826;SHT31;58446;41.490;22.098;2022-07-29T09:18:40;33.06;41.78
70826;SHT31;58446;41.490;22.098;2022-07-29T09:21:08;33.15;42.51
70826;SHT31;58446;41.490;22.098;2022-07-29T09:24:11;33.25;42.14
70826;SHT31;58446;41.490;22.098;2022-07-29T09:26:44;33.39;42.82
70826;SHT31;58446;41.490;22.098;2022-07-29T09:29:16;33.08;43.08
70826;SHT31;58446;41.490;22.098;2022-07-29T09:31:52;33.01;42.25
70826;SHT31;58446;41.490;22.098;2022-07-29T09:34:26;32.94;43.96
70826;SHT31;58446;41.490;22.098;2022-07-29T09:36:53;33.06;44.25
70826;SHT31;58446;41.490;22.098;2022-07-29T09:39:35;33.08;41.94
70826;SHT31;58446;41.490;22.098;2022-07-29T09:42:03;33.12;43.69
70826;SHT31;58446;41.490;22.098;2022-07-29T09:44:47;33.23;41.97
70826;SHT31;58446;41.490;22.098;2022-07-29T09:47:17;33.46;42.62
70826;SHT31;58446;41.490;22.098;2022-07-29T09:49:56;33.29;40.95
70826;SHT31;58446;41.490;22.098;2022-07-29T09:52:29;33.16;40.81
70826;SHT31;58446;41.490;22.098;2022-07-29T09:55:06;32.85;40.81
70826;SHT31;58446;41.490;22.098;2022-07-29T09:57:32;32.85;42.25
70826;SHT31;58446;41.490;22.098;2022-07-29T10:00:05;32.99;42.32
70826;SHT31;58446;41.490;22.098;2022-07-29T10:02:36;32.89;42.47
70826;SHT31;58446;41.490;22.098;2022-07-29T10:05:04;32.91;45.13
70826;SHT31;58446;41.490;22.098;2022-07-29T10:07:53;32.84;41.70
70826;SHT31;58446;41.490;22.098;2022-07-29T10:12:56;32.86;42.34
70826;SHT31;58446;41.490;22.098;2022-07-29T10:15:24;33.16;44.91
70826;SHT31;58446;41.490;22.098;2022-07-29T10:17:51;33.27;41.10
70826;SHT31;58446;41.490;22.098;2022-07-29T10:20:18;33.30;42.95
70826;SHT31;58446;41.490;22.098;2022-07-29T10:22:43;33.36;41.93
70826;SHT31;58446;41.490;22.098;2022-07-29T10:25:14;33.46;41.55
70826;SHT31;58446;41.490;22.098;2022-07-29T10:27:40;33.37;41.46
70826;SHT31;58446;41.490;22.098;2022-07-29T10:30:06;33.52;40.79
70826;SHT31;58446;41.490;22.098;2022-07-29T10:38:36;33.84;43.92
70826;SHT31;58446;41.490;22.098;2022-07-29T10:44:22;34.08;41.15
70826;SHT31;58446;41.490;22.098;2022-07-29T10:46:49;34.00;41.06
70826;SHT31;58446;41.490;22.098;2022-07-29T10:49:24;34.20;42.43
70826;SHT31;58446;41.490;22.098;2022-07-29T10:52:05;34.17;41.19
70826;SHT31;58446;41.490;22.098;2022-07-29T10:54:44;34.24;40.22
70826;SHT31;58446;41.490;22.098;2022-07-29T11:00:25;34.44;40.75
70826;SHT31;58446;41.490;22.098;2022-07-29T11:05:04;34.45;39.90
70826;SHT31;58446;41.490;22.098;2022-07-29T11:07:32;34.00;40.19
70826;SHT31;58446;41.490;22.098;2022-07-29T11:15:09;33.87;43.07
70826;SHT31;58446;41.490;22.098;2022-07-29T11:20:42;34.31;41.53
70826;SHT31;58446;41.490;22.098;2022-07-29T11:23:31;34.44;39.42
70826;SHT31;58446;41.490;22.098;2022-07-29T11:31:40;34.89;39.16
70826;SHT31;58446;41.490;22.098;2022-07-29T11:34:27;35.02;38.33
70826;SHT31;58446;41.490;22.098;2022-07-29T11:39:35;35.20;35.25
70826;SHT31;58446;41.490;22.098;2022-07-29T11:47:31;34.27;39.12
70826;SHT31;58446;41.490;22.098;2022-07-29T11:49:59;34.56;38.79
70826;SHT31;58446;41.490;22.098;2022-07-29T11:52:35;34.91;38.62
70826;SHT31;58446;41.490;22.098;2022-07-29T11:55:04;35.13;37.55
70826;SHT31;58446;41.490;22.098;2022-07-29T11:57:31;35.30;34.33
70826;SHT31;58446;41.490;22.098;2022-07-29T11:59:59;35.40;35.13
70826;SHT31;58446;41.490;22.098;2022-07-29T12:02:41;35.54;36.02
70826;SHT31;58446;41.490;22.098;2022-07-29T12:05:07;35.37;35.90
70826;SHT31;58446;41.490;22.098;2022-07-29T12:07:34;34.88;36.43
70826;SHT31;58446;41.490;22.098;2022-07-29T12:10:00;34.85;37.32
70826;SHT31;58446;41.490;22.098;2022-07-29T12:12:26;35.00;36.52
70826;SHT31;58446;41.490;22.098;2022-07-29T12:14:52;35.16;37.09
70826;SHT31;58446;41.490;22.098;2022-07-29T12:17:33;35.32;36.03
70826;SHT31;58446;41.490;22.098;2022-07-29T12:20:02;35.44;35.62
70826;SHT31;58446;41.490;22.098;2022-07-29T12:22:30;35.29;36.11
70826;SHT31;58446;41.490;22.098;2022-07-29T12:25:01;35.47;35.00
70826;SHT31;58446;41.490;22.098;2022-07-29T12:27:28;35.58;34.89
70826;SHT31;58446;41.490;22.098;2022-07-29T12:30:04;35.70;34.55
70826;SHT31;58446;41.490;22.098;2022-07-29T12:32:37;35.87;34.74
70826;SHT31;58446;41.490;22.098;2022-07-29T12:35:09;35.91;34.89
70826;SHT31;58446;41.490;22.098;2022-07-29T12:37:36;35.98;33.25
70826;SHT31;58446;41.490;22.098;2022-07-29T12:40:06;36.00;35.17
70826;SHT31;58446;41.490;22.098;2022-07-29T12:42:33;36.05;34.24
70826;SHT31;58446;41.490;22.098;2022-07-29T12:44:59;36.06;34.57
70826;SHT31;58446;41.490;22.098;2022-07-29T12:47:30;36.18;35.06
70826;SHT31;58446;41.490;22.098;2022-07-29T12:50:14;36.25;35.15
70826;SHT31;58446;41.490;22.098;2022-07-29T12:52:44;36.11;34.49
70826;SHT31;58446;41.490;22.098;2022-07-29T12:55:11;36.28;34.76
70826;SHT31;58446;41.490;22.098;2022-07-29T12:57:47;36.24;35.43
70826;SHT31;58446;41.490;22.098;2022-07-29T13:00:15;36.33;34.45
70826;SHT31;58446;41.490;22.098;2022-07-29T13:02:43;36.08;34.60
70826;SHT31;58446;41.490;22.098;2022-07-29T13:05:10;36.11;34.59
70826;SHT31;58446;41.490;22.098;2022-07-29T13:07:38;36.15;34.53
70826;SHT31;58446;41.490;22.098;2022-07-29T13:10:14;36.24;34.30
70826;SHT31;58446;41.490;22.098;2022-07-29T13:15:27;36.22;34.89
70826;SHT31;58446;41.490;22.098;2022-07-29T13:17:53;36.24;34.39
70826;SHT31;58446;41.490;22.098;2022-07-29T13:20:24;36.17;34.07
70826;SHT31;58446;41.490;22.098;2022-07-29T13:22:50;35.90;34.86
70826;SHT31;58446;41.490;22.098;2022-07-29T13:25:32;35.95;35.22
70826;SHT31;58446;41.490;22.098;2022-07-29T13:27:59;35.76;35.39
70826;SHT31;58446;41.490;22.098;2022-07-29T13:30:25;35.57;35.37
70826;SHT31;58446;41.490;22.098;2022-07-29T13:32:52;35.65;35.69
70826;SHT31;58446;41.490;22.098;2022-07-29T13:35:18;35.84;34.87
70826;SHT31;58446;41.490;22.098;2022-07-29T13:37:44;35.76;35.14
70826;SHT31;58446;41.490;22.098;2022-07-29T13:40:10;35.71;35.32
70826;SHT31;58446;41.490;22.098;2022-07-29T13:42:36;35.85;33.77
70826;SHT31;58446;41.490;22.098;2022-07-29T13:45:06;35.83;33.57
70826;SHT31;58446;41.490;22.098;2022-07-29T13:47:38;35.80;33.92
70826;SHT31;58446;41.490;22.098;2022-07-29T13:50:05;35.92;34.16
70826;SHT31;58446;41.490;22.098;2022-07-29T13:52:31;35.98;35.61
70826;SHT31;58446;41.490;22.098;2022-07-29T13:54:56;35.97;34.30
70826;SHT31;58446;41.490;22.098;2022-07-29T13:57:28;35.70;34.52
70826;SHT31;58446;41.490;22.098;2022-07-29T13:59:54;35.80;35.51
70826;SHT31;58446;41.490;22.098;2022-07-29T14:02:21;35.69;34.22
70826;SHT31;58446;41.490;22.098;2022-07-29T14:04:46;35.76;34.35
70826;SHT31;58446;41.490;22.098;2022-07-29T14:07:13;35.95;34.33
70826;SHT31;58446;41.490;22.098;2022-07-29T14:09:38;36.15;33.39
70826;SHT31;58446;41.490;22.098;2022-07-29T14:12:04;36.22;33.17
70826;SHT31;58446;41.490;22.098;2022-07-29T14:14:30;36.35;33.40
70826;SHT31;58446;41.490;22.098;2022-07-29T14:16:57;36.42;32.47
70826;SHT31;58446;41.490;22.098;2022-07-29T14:19:23;36.55;32.30
70826;SHT31;58446;41.490;22.098;2022-07-29T14:21:49;36.57;31.45
70826;SHT31;58446;41.490;22.098;2022-07-29T14:24:15;36.53;31.18
70826;SHT31;58446;41.490;22.098;2022-07-29T14:26:40;36.43;33.18
70826;SHT31;58446;41.490;22.098;2022-07-29T14:29:06;36.52;33.63
70826;SHT31;58446;41.490;22.098;2022-07-29T14:31:32;36.49;32.54
70826;SHT31;58446;41.490;22.098;2022-07-29T14:33:57;36.36;32.61
70826;SHT31;58446;41.490;22.098;2022-07-29T14:36:23;36.35;32.70
70826;SHT31;58446;41.490;22.098;2022-07-29T14:38:49;36.46;32.58
70826;SHT31;58446;41.490;22.098;2022-07-29T14:41:15;36.49;32.22
70826;SHT31;58446;41.490;22.098;2022-07-29T14:43:41;36.33;32.08
70826;SHT31;58446;41.490;22.098;2022-07-29T14:46:07;36.20;32.46
70826;SHT31;58446;41.490;22.098;2022-07-29T14:48:33;36.15;32.58
70826;SHT31;58446;41.490;22.098;2022-07-29T14:51:02;36.11;33.10
70826;SHT31;58446;41.490;22.098;2022-07-29T14:53:28;35.94;33.85
70826;SHT31;58446;41.490;22.098;2022-07-29T14:55:53;35.95;33.47
70826;SHT31;58446;41.490;22.098;2022-07-29T14:58:19;35.94;32.43
70826;SHT31;58446;41.490;22.098;2022-07-29T15:00:46;35.94;32.59
70826;SHT31;58446;41.490;22.098;2022-07-29T15:03:12;35.98;33.87
70826;SHT31;58446;41.490;22.098;2022-07-29T15:05:38;36.04;33.52
70826;SHT31;58446;41.490;22.098;2022-07-29T15:08:04;36.18;32.12
70826;SHT31;58446;41.490;22.098;2022-07-29T15:10:29;36.14;32.96
70826;SHT31;58446;41.490;22.098;2022-07-29T15:12:55;36.12;33.59
70826;SHT31;58446;41.490;22.098;2022-07-29T15:15:21;36.17;32.61
70826;SHT31;58446;41.490;22.098;2022-07-29T15:17:47;36.11;32.49
70826;SHT31;58446;41.490;22.098;2022-07-29T15:20:13;36.04;32.71
70826;SHT31;58446;41.490;22.098;2022-07-29T15:22:39;35.84;32.48
70826;SHT31;58446;41.490;22.098;2022-07-29T15:25:06;35.80;32.38
70826;SHT31;58446;41.490;22.098;2022-07-29T15:27:32;35.78;31.93
70826;SHT31;58446;41.490;22.098;2022-07-29T15:29:58;35.70;32.74
70826;SHT31;58446;41.490;22.098;2022-07-29T15:32:23;35.73;31.81
70826;SHT31;58446;41.490;22.098;2022-07-29T15:34:49;35.73;31.85
70826;SHT31;58446;41.490;22.098;2022-07-29T15:37:15;35.67;32.27
70826;SHT31;58446;41.490;22.098;2022-07-29T15:39:40;35.60;32.87
70826;SHT31;58446;41.490;22.098;2022-07-29T15:42:07;35.69;34.18
70826;SHT31;58446;41.490;22.098;2022-07-29T15:44:33;35.64;33.07
70826;SHT31;58446;41.490;22.098;2022-07-29T15:46:59;35.51;32.54
70826;SHT31;58446;41.490;22.098;2022-07-29T15:49:28;35.46;32.35
70826;SHT31;58446;41.490;22.098;2022-07-29T15:51:59;35.51;32.42
70826;SHT31;58446;41.490;22.098;2022-07-29T15:54:25;35.51;32.47
70826;SHT31;58446;41.490;22.098;2022-07-29T15:56:51;35.49;32.41
70826;SHT31;58446;41.490;22.098;2022-07-29T15:59:18;35.50;32.47
70826;SHT31;58446;41.490;22.098;2022-07-29T16:01:43;35.43;33.00
70826;SHT31;58446;41.490;22.098;2022-07-29T16:04:09;35.36;32.40
70826;SHT31;58446;41.490;22.098;2022-07-29T16:06:34;35.13;33.47
70826;SHT31;58446;41.490;22.098;2022-07-29T16:09:00;35.07;34.80
70826;SHT31;58446;41.490;22.098;2022-07-29T16:11:26;35.22;34.08
70826;SHT31;58446;41.490;22.098;2022-07-29T16:13:52;35.25;33.83
70826;SHT31;58446;41.490;22.098;2022-07-29T16:16:17;35.29;33.88
70826;SHT31;58446;41.490;22.098;2022-07-29T16:18:44;35.30;34.33
70826;SHT31;58446;41.490;22.098;2022-07-29T16:21:10;35.30;34.25